Time;durP1;ratioP1;P1;durP2;ratioP2;P2;SDS_P1;SDS_P2;PMS_P1;PMS_P2;Temp;Humidity;BMP_temperature;BMP_pressure;BME280_temperature;BME280_humidity;BME280_pressure;Samples;Min_cycle;Max_cycle;Signal;HPM_P1;HPM_P2
2019/05/20 00:01:17;;;;;;;14.3;12.9;;;;;;;;;;;;;
2019/05/20 00:03:42;;;;;;;11.6;10.5;;;;;;;;;;;;;
2019/05/20 00:06:07;;;;;;;12.6;11.3;;;;;;;;;;;;;
2019/05/20 00:08:33;;;;;;;14.2;12.8;;;;;;;;;;;;;
2019/05/20 00:10:58;;;;;;;14.2;12.8;;;;;;;;;;;;;
2019/05/20 00:13:23;;;;;;;14.2;12.8;;;;;;;;;;;;;
2019/05/20 00:15:48;;;;;;;13;11.8;;;;;;;;;;;;;
2019/05/20 00:18:16;;;;;;;14.4;13;;;;;;;;;;;;;
2019/05/20 00:20:41;;;;;;;13.1;11.8;;;;;;;;;;;;;
2019/05/20 00:23:06;;;;;;;14.4;13;;;;;;;;;;;;;
2019/05/20 00:25:31;;;;;;;15.5;14.1;;;;;;;;;;;;;
2019/05/20 00:27:57;;;;;;;15.6;14.1;;;;;;;;;;;;;
2019/05/20 00:30:22;;;;;;;14.6;13.2;;;;;;;;;;;;;
2019/05/20 00:32:48;;;;;;;17.1;15.3;;;;;;;;;;;;;
2019/05/20 00:35:13;;;;;;;16.2;14.7;;;;;;;;;;;;;
2019/05/20 00:37:40;;;;;;;16.4;14.8;;;;;;;;;;;;;
2019/05/20 00:40:05;;;;;;;15.2;13.6;;;;;;;;;;;;;
2019/05/20 00:42:31;;;;;;;15.1;13.6;;;;;;;;;;;;;
2019/05/20 00:44:56;;;;;;;16.9;15.2;;;;;;;;;;;;;
2019/05/20 00:47:22;;;;;;;17;15.4;;;;;;;;;;;;;
2019/05/20 00:49:47;;;;;;;16.7;15;;;;;;;;;;;;;
2019/05/20 00:52:12;;;;;;;18.1;16.3;;;;;;;;;;;;;
2019/05/20 00:54:37;;;;;;;16.9;15.3;;;;;;;;;;;;;
2019/05/20 00:57:04;;;;;;;19.3;17.5;;;;;;;;;;;;;
2019/05/20 00:59:29;;;;;;;17.7;15.9;;;;;;;;;;;;;
2019/05/20 01:01:54;;;;;;;17.5;15.9;;;;;;;;;;;;;
2019/05/20 01:04:20;;;;;;;18.1;16.2;;;;;;;;;;;;;
2019/05/20 01:06:46;;;;;;;16.2;14.6;;;;;;;;;;;;;
2019/05/20 01:09:11;;;;;;;16.5;14.9;;;;;;;;;;;;;
2019/05/20 01:11:36;;;;;;;17.8;16;;;;;;;;;;;;;
2019/05/20 01:14:02;;;;;;;18.8;16.9;;;;;;;;;;;;;
2019/05/20 01:16:27;;;;;;;17.8;16;;;;;;;;;;;;;
2019/05/20 01:18:52;;;;;;;17.8;16.1;;;;;;;;;;;;;
2019/05/20 01:21:21;;;;;;;17.8;16;;;;;;;;;;;;;
2019/05/20 01:23:46;;;;;;;19;17.1;;;;;;;;;;;;;
2019/05/20 01:26:11;;;;;;;18.9;17.1;;;;;;;;;;;;;
2019/05/20 01:28:36;;;;;;;19.5;17.5;;;;;;;;;;;;;
2019/05/20 01:31:02;;;;;;;20.3;18.2;;;;;;;;;;;;;
2019/05/20 01:33:27;;;;;;;21.2;19;;;;;;;;;;;;;
2019/05/20 01:35:58;;;;;;;20.7;18.6;;;;;;;;;;;;;
2019/05/20 01:38:24;;;;;;;23.6;21.2;;;;;;;;;;;;;
2019/05/20 01:40:49;;;;;;;21.5;19.4;;;;;;;;;;;;;
2019/05/20 01:43:15;;;;;;;21.9;19.8;;;;;;;;;;;;;
2019/05/20 01:45:40;;;;;;;24.3;21.8;;;;;;;;;;;;;
2019/05/20 01:48:05;;;;;;;25.3;22.7;;;;;;;;;;;;;
2019/05/20 01:50:30;;;;;;;24.7;22.3;;;;;;;;;;;;;
2019/05/20 01:52:55;;;;;;;25.1;22.6;;;;;;;;;;;;;
2019/05/20 01:55:21;;;;;;;25;22.6;;;;;;;;;;;;;
2019/05/20 01:57:46;;;;;;;25.2;22.6;;;;;;;;;;;;;
2019/05/20 02:00:13;;;;;;;26.6;23.7;;;;;;;;;;;;;
2019/05/20 02:02:38;;;;;;;23.4;21.1;;;;;;;;;;;;;
2019/05/20 02:05:04;;;;;;;22.4;20.3;;;;;;;;;;;;;
2019/05/20 02:07:29;;;;;;;25.1;22.6;;;;;;;;;;;;;
2019/05/20 02:09:54;;;;;;;27.3;24.6;;;;;;;;;;;;;
2019/05/20 02:12:19;;;;;;;23.3;21;;;;;;;;;;;;;
2019/05/20 02:14:50;;;;;;;27.3;24.6;;;;;;;;;;;;;
2019/05/20 02:17:09;;;;;;;26.9;24.3;;;;;;;;;;;;;
2019/05/20 02:19:34;;;;;;;25;22.4;;;;;;;;;;;;;
2019/05/20 02:21:59;;;;;;;26.8;24.2;;;;;;;;;;;;;
2019/05/20 02:24:24;;;;;;;24.4;22;;;;;;;;;;;;;
2019/05/20 02:26:49;;;;;;;27.5;24.7;;;;;;;;;;;;;
2019/05/20 02:29:15;;;;;;;25.3;22.6;;;;;;;;;;;;;
2019/05/20 02:31:39;;;;;;;28.3;25.5;;;;;;;;;;;;;
2019/05/20 02:34:05;;;;;;;27.9;25.1;;;;;;;;;;;;;
2019/05/20 02:36:30;;;;;;;25.6;22;;;;;;;;;;;;;
2019/05/20 02:38:55;;;;;;;27.5;24.7;;;;;;;;;;;;;
2019/05/20 02:41:20;;;;;;;26.5;23.9;;;;;;;;;;;;;
2019/05/20 02:43:45;;;;;;;28.7;25.7;;;;;;;;;;;;;
2019/05/20 02:46:10;;;;;;;29.2;26.4;;;;;;;;;;;;;
2019/05/20 02:48:35;;;;;;;31.3;28.1;;;;;;;;;;;;;
2019/05/20 02:51:00;;;;;;;30.9;27.8;;;;;;;;;;;;;
2019/05/20 02:53:26;;;;;;;28;25.3;;;;;;;;;;;;;
2019/05/20 02:55:51;;;;;;;28.5;25.5;;;;;;;;;;;;;
2019/05/20 02:58:16;;;;;;;30.3;27.2;;;;;;;;;;;;;
2019/05/20 03:00:42;;;;;;;29.6;26.5;;;;;;;;;;;;;
2019/05/20 03:03:07;;;;;;;26.4;23.8;;;;;;;;;;;;;
2019/05/20 03:05:32;;;;;;;31.1;28;;;;;;;;;;;;;
2019/05/20 03:07:58;;;;;;;29.4;26.4;;;;;;;;;;;;;
2019/05/20 03:10:23;;;;;;;31;27.7;;;;;;;;;;;;;
2019/05/20 03:12:48;;;;;;;28.7;25.9;;;;;;;;;;;;;
2019/05/20 03:15:14;;;;;;;31.4;28.2;;;;;;;;;;;;;
2019/05/20 03:17:39;;;;;;;30.5;27.3;;;;;;;;;;;;;
2019/05/20 03:20:05;;;;;;;30.9;27.8;;;;;;;;;;;;;
2019/05/20 03:22:30;;;;;;;31.4;28.2;;;;;;;;;;;;;
2019/05/20 03:24:55;;;;;;;29;26;;;;;;;;;;;;;
2019/05/20 03:27:20;;;;;;;28.5;25.5;;;;;;;;;;;;;
2019/05/20 03:29:45;;;;;;;28.7;25.8;;;;;;;;;;;;;
2019/05/20 03:32:10;;;;;;;26.6;24;;;;;;;;;;;;;
2019/05/20 03:34:35;;;;;;;27.4;24.7;;;;;;;;;;;;;
2019/05/20 03:37:00;;;;;;;28.8;25.9;;;;;;;;;;;;;
2019/05/20 03:39:25;;;;;;;29.7;26.7;;;;;;;;;;;;;
2019/05/20 03:41:50;;;;;;;29.1;26.2;;;;;;;;;;;;;
2019/05/20 03:44:15;;;;;;;30.5;27.5;;;;;;;;;;;;;
2019/05/20 03:46:41;;;;;;;28.4;25.5;;;;;;;;;;;;;
2019/05/20 03:49:06;;;;;;;28.8;25.9;;;;;;;;;;;;;
2019/05/20 03:51:33;;;;;;;31.4;28.1;;;;;;;;;;;;;
2019/05/20 03:53:58;;;;;;;29.7;26.6;;;;;;;;;;;;;
2019/05/20 03:56:24;;;;;;;28.5;25.6;;;;;;;;;;;;;
2019/05/20 03:58:49;;;;;;;30.6;27.4;;;;;;;;;;;;;
2019/05/20 04:02:30;;;;;;;29.8;26.8;;;;;;;12.27;97.36914;946.0976;;;;
2019/05/20 04:04:56;;;;;;;30;27;;;;;;;12.29;97.41992;946.0519;;;;
2019/05/20 04:07:21;;;;;;;28.4;25.5;;;;;;;12.3;96.9834;945.9995;;;;
2019/05/20 04:09:46;;;;;;;26.9;24.1;;;;;;;12.36;96.73145;946.0596;;;;
2019/05/20 04:12:11;;;;;;;28.3;25.3;;;;;;;12.27;97.06836;946.0128;;;;
2019/05/20 04:14:38;;;;;;;28.8;25.9;;;;;;;12.22;97.3457;945.9467;;;;
2019/05/20 04:17:03;;;;;;;29.6;26.5;;;;;;;12.24;97.46777;945.9902;;;;
2019/05/20 04:19:32;;;;;;;26.3;23.6;;;;;;;12.24;96.98145;945.9604;;;;
2019/05/20 04:21:58;;;;;;;24.2;21.8;;;;;;;12.35;96.39063;946.0319;;;;
2019/05/20 04:24:25;;;;;;;27;24.2;;;;;;;12.27;96.74414;946;;;;
2019/05/20 04:26:50;;;;;;;24.6;22.1;;;;;;;12.33;96.16895;946.0508;;;;
2019/05/20 04:29:15;;;;;;;28.6;25.7;;;;;;;12.22;96.60449;945.998;;;;
2019/05/20 04:31:41;;;;;;;29.6;26.6;;;;;;;12.18;96.9209;945.9817;;;;
2019/05/20 04:34:07;;;;;;;25.9;23.4;;;;;;;12.27;96.44238;945.9437;;;;
2019/05/20 04:36:33;;;;;;;26.7;23.7;;;;;;;12.27;96.1875;945.9052;;;;
2019/05/20 04:38:58;;;;;;;29.1;26.1;;;;;;;12.22;96.91699;945.8611;;;;
2019/05/20 04:41:23;;;;;;;25.6;23.1;;;;;;;12.26;96.60254;945.9152;;;;
2019/05/20 04:43:49;;;;;;;31.8;28.6;;;;;;;12.24;97.24707;945.9131;;;;
2019/05/20 04:46:14;;;;;;;29;25.9;;;;;;;12.26;96.86914;945.9495;;;;
2019/05/20 04:48:39;;;;;;;26;23.3;;;;;;;12.36;95.94336;945.8889;;;;
2019/05/20 04:51:04;;;;;;;25.2;22.8;;;;;;;12.39;96.03027;945.9024;;;;
2019/05/20 04:53:30;;;;;;;26.1;23.4;;;;;;;12.4;95.60156;945.9914;;;;
2019/05/20 04:55:56;;;;;;;25.5;23.1;;;;;;;12.42;95.09766;946.0563;;;;
2019/05/20 04:58:21;;;;;;;24.8;22.3;;;;;;;12.29;95.56641;946.0787;;;;
2019/05/20 05:00:56;;;;;;;23.7;21.4;;;;;;;12.38;95.31934;946.0792;;;;
2019/05/20 05:03:32;;;;;;;25.8;23.2;;;;;;;12.37;96.2207;946.0803;;;;
2019/05/20 05:06:03;;;;;;;25.6;23;;;;;;;12.39;96.09961;946.0307;;;;
2019/05/20 05:08:31;;;;;;;23.6;21.3;;;;;;;12.36;95.60547;946.0645;;;;
2019/05/20 05:10:56;;;;;;;25.5;23;;;;;;;12.33;95.70508;946.0636;;;;
2019/05/20 05:13:35;;;;;;;23.2;20.9;;;;;;;12.45;94.87109;946.07;;;;
2019/05/20 05:16:00;;;;;;;23.5;21.2;;;;;;;12.48;94.56445;946.0657;;;;
2019/05/20 05:18:26;;;;;;;22.9;20.7;;;;;;;12.62;94.38672;945.9614;;;;
2019/05/20 05:20:51;;;;;;;22.7;20.4;;;;;;;12.54;94.75195;946.0192;;;;
2019/05/20 05:23:16;;;;;;;21.4;19.3;;;;;;;12.77;93.74707;945.983;;;;
2019/05/20 05:25:41;;;;;;;21;19;;;;;;;12.73;93.72754;945.9456;;;;
2019/05/20 05:28:07;;;;;;;21.7;19.6;;;;;;;12.6;94.77734;945.9672;;;;
2019/05/20 05:30:32;;;;;;;19.9;18;;;;;;;12.72;93.67773;945.9992;;;;
2019/05/20 05:32:57;;;;;;;20.7;18.8;;;;;;;12.6;93.72168;945.921;;;;
2019/05/20 05:35:23;;;;;;;20;18.1;;;;;;;12.46;94.11035;945.9949;;;;
2019/05/20 05:37:50;;;;;;;18.2;16.5;;;;;;;12.88;92.58691;946.0323;;;;
2019/05/20 05:40:16;;;;;;;21.9;19.7;;;;;;;12.9;93.56543;946.0048;;;;
2019/05/20 05:42:45;;;;;;;21.8;19.6;;;;;;;12.75;93.69727;946.0076;;;;
2019/05/20 05:45:10;;;;;;;18.3;16.6;;;;;;;12.9;91.85938;946.0087;;;;
2019/05/20 05:47:35;;;;;;;19.1;17.1;;;;;;;12.73;93.02051;946.0444;;;;
2019/05/20 05:50:04;;;;;;;16.6;14.9;;;;;;;12.9;92.54395;946.1114;;;;
2019/05/20 05:52:29;;;;;;;18.9;16.4;;;;;;;12.72;93.45898;946.1611;;;;
2019/05/20 05:54:57;;;;;;;18.2;16.5;;;;;;;12.58;93.92676;946.1117;;;;
2019/05/20 05:57:26;;;;;;;16.3;14.8;;;;;;;12.58;93.29883;946.1462;;;;
2019/05/20 06:00:12;;;;;;;18.9;15.7;;;;;;;12.77;92.41309;946.1291;;;;
2019/05/20 06:02:38;;;;;;;18.6;16.8;;;;;;;12.54;93.51367;946.1424;;;;
2019/05/20 06:05:03;;;;;;;17.5;15.5;;;;;;;12.42;93.50977;946.1114;;;;
2019/05/20 06:07:29;;;;;;;17;15.3;;;;;;;12.56;93.56152;946.1364;;;;
2019/05/20 06:09:54;;;;;;;18;16.1;;;;;;;12.6;93.35059;946.1558;;;;
2019/05/20 06:12:21;;;;;;;17.3;15.7;;;;;;;12.64;93.47461;946.1981;;;;
2019/05/20 06:14:47;;;;;;;17.4;15.6;;;;;;;12.57;93.40332;946.1342;;;;
2019/05/20 06:17:12;;;;;;;18.6;16.8;;;;;;;12.41;93.98242;946.2034;;;;
2019/05/20 06:19:37;;;;;;;18.2;16.3;;;;;;;12.57;93.47266;946.1855;;;;
2019/05/20 06:22:03;;;;;;;18.2;16.4;;;;;;;12.8;92.40723;946.1211;;;;
2019/05/20 06:24:28;;;;;;;17;15.3;;;;;;;12.73;92.76563;946.1253;;;;
2019/05/20 06:26:54;;;;;;;18.6;16.6;;;;;;;12.77;92.94531;946.0739;;;;
2019/05/20 06:29:22;;;;;;;16.1;14.6;;;;;;;12.84;92.8457;946.1752;;;;
2019/05/20 06:31:47;;;;;;;18.4;16.4;;;;;;;12.76;93.07227;946.2418;;;;
2019/05/20 06:34:13;;;;;;;17;15.3;;;;;;;12.69;91.93262;946.178;;;;
2019/05/20 06:36:44;;;;;;;17.4;15.6;;;;;;;12.95;91.11719;946.2156;;;;
2019/05/20 06:39:10;;;;;;;16.3;14.7;;;;;;;13.09;90.79883;946.2381;;;;
2019/05/20 06:41:31;;;;;;;16.2;14.7;;;;;;;13.14;90.3457;946.2742;;;;
2019/05/20 06:43:56;;;;;;;16.3;14.7;;;;;;;13.1;90.33594;946.2806;;;;
2019/05/20 06:46:22;;;;;;;16.3;14.7;;;;;;;13.26;89.68457;946.2935;;;;
2019/05/20 06:48:47;;;;;;;16.5;14.8;;;;;;;13.15;89.94141;946.3209;;;;
2019/05/20 06:51:13;;;;;;;14.4;13;;;;;;;13.16;90.47461;946.3455;;;;
2019/05/20 06:53:37;;;;;;;16.1;14.5;;;;;;;13.12;90.2373;946.3289;;;;
2019/05/20 06:56:02;;;;;;;18.7;16.8;;;;;;;12.99;92.6582;946.3723;;;;
2019/05/20 06:58:27;;;;;;;16;13.6;;;;;;;13.16;90.45215;946.3544;;;;
2019/05/20 07:00:58;;;;;;;16;14.3;;;;;;;13.28;89.62012;946.3458;;;;
2019/05/20 07:03:23;;;;;;;16.9;15.1;;;;;;;13.14;90.27637;946.3513;;;;
2019/05/20 07:05:48;;;;;;;16.6;15;;;;;;;13.21;89.93066;946.3292;;;;
2019/05/20 07:08:19;;;;;;;17.5;15.7;;;;;;;12.84;92.11523;946.3549;;;;
2019/05/20 07:10:45;;;;;;;15.6;14;;;;;;;13.16;90.75391;946.3455;;;;
2019/05/20 07:13:13;;;;;;;18.4;16.2;;;;;;;13.03;91.49316;946.3416;;;;
2019/05/20 07:15:38;;;;;;;16.7;15;;;;;;;13.21;90.48828;946.3677;;;;
2019/05/20 07:18:03;;;;;;;17.9;15.9;;;;;;;13.1;90.90527;946.3401;;;;
2019/05/20 07:20:28;;;;;;;17.9;16;;;;;;;13.37;90.49609;946.3035;;;;
2019/05/20 07:22:53;;;;;;;14.9;13.4;;;;;;;13.66;88.68457;946.3323;;;;
2019/05/20 07:25:20;;;;;;;17.2;15.5;;;;;;;13.4;89.67969;946.3376;;;;
2019/05/20 07:27:44;;;;;;;17.9;16.1;;;;;;;13.27;90.66211;946.3812;;;;
2019/05/20 07:30:28;;;;;;;17.6;15.8;;;;;;;13.41;90.00586;946.3879;;;;
2019/05/20 07:33:01;;;;;;;18.7;16.8;;;;;;;13.46;90.33105;946.355;;;;
2019/05/20 07:35:27;;;;;;;18.2;16.4;;;;;;;13.29;90.22461;946.3794;;;;
2019/05/20 07:37:52;;;;;;;19.1;17.2;;;;;;;13.41;89.7041;946.3793;;;;
2019/05/20 07:40:21;;;;;;;20.6;18.4;;;;;;;13.25;90.53223;946.3409;;;;
2019/05/20 07:42:45;;;;;;;20;17.9;;;;;;;13.27;90.76465;946.3567;;;;
2019/05/20 07:45:19;;;;;;;21;18.8;;;;;;;13.22;91.01074;946.3459;;;;
2019/05/20 07:47:45;;;;;;;20.3;18.2;;;;;;;13.32;90.10352;946.3056;;;;
2019/05/20 07:50:10;;;;;;;22.6;19.7;;;;;;;13.36;90.88965;946.3736;;;;
2019/05/20 07:52:36;;;;;;;19.9;17.9;;;;;;;13.49;90.0459;946.2864;;;;
2019/05/20 07:55:03;;;;;;;21.2;19;;;;;;;13.23;90.52637;946.3094;;;;
2019/05/20 07:57:35;;;;;;;22.1;19.7;;;;;;;13.16;91.35742;946.2941;;;;
2019/05/20 08:00:15;;;;;;;24.2;21;;;;;;;13.36;91.12207;946.2966;;;;
2019/05/20 08:02:59;;;;;;;23.1;20.4;;;;;;;13.43;90.9375;946.3474;;;;
2019/05/20 08:05:44;;;;;;;22.4;20.1;;;;;;;13.47;90.96973;946.2819;;;;
2019/05/20 08:08:10;;;;;;;24.2;21.7;;;;;;;13.38;91.09277;946.3962;;;;
2019/05/20 08:10:48;;;;;;;24.2;21.6;;;;;;;13.43;91.92871;946.372;;;;
2019/05/20 08:13:14;;;;;;;24.6;22.1;;;;;;;13.65;90.80957;946.3898;;;;
2019/05/20 08:15:55;;;;;;;25.3;22.6;;;;;;;13.69;91.66602;946.4013;;;;
2019/05/20 08:18:21;;;;;;;27.2;22.3;;;;;;;13.29;91.64063;946.4178;;;;
2019/05/20 08:20:46;;;;;;;23.6;21.1;;;;;;;13.66;91.60352;946.3491;;;;
2019/05/20 08:23:12;;;;;;;23.8;21.3;;;;;;;13.78;90.65137;946.3589;;;;
2019/05/20 08:25:37;;;;;;;23.1;20.8;;;;;;;13.75;90.79688;946.443;;;;
2019/05/20 08:28:01;;;;;;;23.7;21.1;;;;;;;13.83;90.79102;946.3513;;;;
2019/05/20 08:30:26;;;;;;;26.1;23.3;;;;;;;13.93;90.50879;946.3323;;;;
2019/05/20 08:32:52;;;;;;;25.9;23.2;;;;;;;14.08;90.85449;946.3713;;;;
2019/05/20 08:35:28;;;;;;;25;22.4;;;;;;;13.95;90.18652;946.3303;;;;
2019/05/20 08:38:03;;;;;;;26.4;22.6;;;;;;;14.08;90.69141;946.2299;;;;
2019/05/20 08:40:41;;;;;;;24.2;21.6;;;;;;;14.03;88.90039;946.3272;;;;
2019/05/20 08:43:06;;;;;;;24.6;21.9;;;;;;;14;89.94238;946.3395;;;;
2019/05/20 08:45:38;;;;;;;24.3;21.7;;;;;;;13.91;89.81934;946.2714;;;;
2019/05/20 08:48:03;;;;;;;25.8;23.1;;;;;;;14.1;90.05566;946.382;;;;
2019/05/20 08:50:30;;;;;;;25;22.4;;;;;;;13.88;90.67383;946.3181;;;;
2019/05/20 08:52:56;;;;;;;26.9;23.9;;;;;;;14.02;91.12012;946.2986;;;;
2019/05/20 08:55:21;;;;;;;24.6;21.9;;;;;;;14.1;89.9043;946.3433;;;;
2019/05/20 08:57:47;;;;;;;25.7;23.1;;;;;;;13.88;91.20898;946.3477;;;;
2019/05/20 09:00:12;;;;;;;25;22.4;;;;;;;14.1;89.92773;946.4244;;;;
2019/05/20 09:02:37;;;;;;;29.3;25.7;;;;;;;13.8;91.14355;946.4545;;;;
2019/05/20 09:05:02;;;;;;;29.2;25.8;;;;;;;13.85;91.16602;946.4855;;;;
2019/05/20 09:07:27;;;;;;;28;25;;;;;;;13.82;91.34668;946.4592;;;;
2019/05/20 09:09:52;;;;;;;30;26.8;;;;;;;13.83;91.24414;946.4285;;;;
2019/05/20 09:12:23;;;;;;;29.5;26.3;;;;;;;13.7;91.18164;946.4041;;;;
2019/05/20 09:14:47;;;;;;;32.9;29.3;;;;;;;13.75;91.93652;946.4559;;;;
2019/05/20 09:17:19;;;;;;;29.8;26.7;;;;;;;13.73;90.59375;946.4681;;;;
2019/05/20 09:19:57;;;;;;;32.6;29.2;;;;;;;13.58;91.74902;946.3982;;;;
2019/05/20 09:22:27;;;;;;;35;31.2;;;;;;;13.66;92.18457;946.4648;;;;
2019/05/20 09:24:54;;;;;;;32.9;29.4;;;;;;;13.67;91.37305;946.42;;;;
2019/05/20 09:27:20;;;;;;;32.4;29;;;;;;;13.91;90.98145;946.3961;;;;
2019/05/20 09:29:49;;;;;;;31.6;28.3;;;;;;;13.87;90.51953;946.4489;;;;
2019/05/20 09:32:14;;;;;;;33;29.5;;;;;;;14.04;90.0791;946.4242;;;;
2019/05/20 09:34:39;;;;;;;33.3;29.8;;;;;;;14.09;90.01855;946.4731;;;;
2019/05/20 09:37:07;;;;;;;34.7;31.2;;;;;;;13.98;91.01855;946.4158;;;;
2019/05/20 09:39:34;;;;;;;33.1;29.5;;;;;;;14.03;90.82031;946.4777;;;;
2019/05/20 09:41:59;;;;;;;34.9;31.2;;;;;;;14.22;90.29102;946.433;;;;
2019/05/20 09:44:25;;;;;;;33.1;29.6;;;;;;;14.12;89.88477;946.435;;;;
2019/05/20 09:46:49;;;;;;;33.3;28.6;;;;;;;14.45;88.84668;946.4222;;;;
2019/05/20 09:49:18;;;;;;;35.2;31.2;;;;;;;14.31;89.58594;946.4803;;;;
2019/05/20 09:51:54;;;;;;;33;29.5;;;;;;;14.34;89.11426;946.5245;;;;
2019/05/20 09:54:21;;;;;;;33.3;29.8;;;;;;;14.41;89.67773;946.5098;;;;
2019/05/20 09:56:59;;;;;;;33.8;30.3;;;;;;;14.38;89.43945;946.5258;;;;
2019/05/20 09:59:26;;;;;;;31.8;28.6;;;;;;;14.63;88.18457;946.4528;;;;
2019/05/20 10:01:51;;;;;;;36.3;32.6;;;;;;;14.35;89.88574;946.4711;;;;
2019/05/20 10:04:17;;;;;;;35.9;32.1;;;;;;;;;;;;;
2019/05/20 10:06:42;;;;;;;33;29.5;;;;;;;;;;;;;
2019/05/20 10:09:07;;;;;;;34;30.5;;;;;;;;;;;;;
2019/05/20 10:11:33;;;;;;;30.6;27.4;;;;;;;;;;;;;
2019/05/20 10:14:01;;;;;;;32;28.8;;;;;;;;;;;;;
2019/05/20 10:16:27;;;;;;;34.2;30.5;;;;;;;;;;;;;
2019/05/20 10:18:53;;;;;;;33.3;30;;;;;;;;;;;;;
2019/05/20 10:21:18;;;;;;;34.6;31;;;;;;;;;;;;;
2019/05/20 10:23:46;;;;;;;32.6;29.4;;;;;;;;;;;;;
2019/05/20 10:26:12;;;;;;;35.7;32.2;;;;;;;;;;;;;
2019/05/20 10:28:36;;;;;;;36.1;32.4;;;;;;;;;;;;;
2019/05/20 10:31:02;;;;;;;36.8;33.1;;;;;;;;;;;;;
2019/05/20 10:33:36;;;;;;;36.2;32.6;;;;;;;;;;;;;
2019/05/20 10:36:07;;;;;;;38.6;34.6;;;;;;;;;;;;;
2019/05/20 10:38:35;;;;;;;36.8;33.3;;;;;;;;;;;;;
2019/05/20 10:41:03;;;;;;;39.8;35.7;;;;;;;;;;;;;
2019/05/20 10:43:26;;;;;;;38.3;34.5;;;;;;;;;;;;;
2019/05/20 10:45:53;;;;;;;38.2;34.4;;;;;;;;;;;;;
2019/05/20 10:48:19;;;;;;;39;35.2;;;;;;;;;;;;;
2019/05/20 10:50:46;;;;;;;39.8;35.9;;;;;;;;;;;;;
2019/05/20 10:53:20;;;;;;;38.1;34.3;;;;;;;;;;;;;
2019/05/20 10:56:05;;;;;;;44.6;40.1;;;;;;;;;;;;;
2019/05/20 10:58:20;;;;;;;40.5;36.4;;;;;;;;;;;;;
2019/05/20 11:00:46;;;;;;;40.8;36.8;;;;;;;;;;;;;
2019/05/20 11:03:20;;;;;;;42.2;37.9;;;;;;;;;;;;;
2019/05/20 11:05:51;;;;;;;42.6;38.3;;;;;;;;;;;;;
2019/05/20 11:08:14;;;;;;;42.2;38.1;;;;;;;;;;;;;
2019/05/20 11:10:39;;;;;;;42.5;38.2;;;;;;;;;;;;;
2019/05/20 11:13:05;;;;;;;44.9;40.5;;;;;;;;;;;;;
2019/05/20 11:15:29;;;;;;;42.4;38.1;;;;;;;;;;;;;
2019/05/20 11:17:57;;;;;;;42.1;38;;;;;;;;;;;;;
2019/05/20 11:20:23;;;;;;;43.3;39;;;;;;;;;;;;;
2019/05/20 11:22:51;;;;;;;41.7;37.7;;;;;;;;;;;;;
2019/05/20 11:25:13;;;;;;;45.7;41.3;;;;;;;;;;;;;
2019/05/20 11:27:42;;;;;;;47.3;42.7;;;;;;;;;;;;;
2019/05/20 11:30:07;;;;;;;52.3;47.1;;;;;;;;;;;;;
2019/05/20 11:32:34;;;;;;;52.8;47.3;;;;;;;;;;;;;
2019/05/20 11:35:02;;;;;;;53.5;48.3;;;;;;;;;;;;;
2019/05/20 11:37:27;;;;;;;55.7;50.2;;;;;;;;;;;;;
2019/05/20 11:39:52;;;;;;;53.5;48.1;;;;;;;;;;;;;
2019/05/20 11:42:18;;;;;;;52.8;47.6;;;;;;;;;;;;;
2019/05/20 11:44:45;;;;;;;57.4;51.4;;;;;;;;;;;;;
2019/05/20 11:47:09;;;;;;;55.3;49.6;;;;;;;;;;;;;
2019/05/20 11:49:34;;;;;;;57.3;51.4;;;;;;;;;;;;;
2019/05/20 11:52:00;;;;;;;52.3;47.1;;;;;;;;;;;;;
2019/05/20 11:54:26;;;;;;;52.7;47.5;;;;;;;;;;;;;
2019/05/20 11:57:09;;;;;;;54.1;48.9;;;;;;;;;;;;;
2019/05/20 12:01:51;;;;;;;57;50.8;;;;;;;;;;;;;
2019/05/20 12:04:26;;;;;;;59.2;53.1;;;;;;;;;;;;;
2019/05/20 12:07:21;;;;;;;60.7;54.3;;;;;;;;;;;;;
2019/05/20 12:09:30;;;;;;;80.3;68;;;;;;;;;;;;;
2019/05/20 12:12:05;;;;;;;79.7;67.9;;;;;;;;;;;;;
2019/05/20 12:14:43;;;;;;;144.4;87.1;;;;;;;;;;;;;
2019/05/20 12:17:13;;;;;;;107.9;75.4;;;;;;;;;;;;;
2019/05/20 12:19:41;;;;;;;41.3;34.6;;;;;;;;;;;;;
2019/05/20 12:22:07;;;;;;;19;14.8;;;;;;;;;;;;;
2019/05/20 12:24:31;;;;;;;24.2;17.3;;;;;;;;;;;;;
2019/05/20 12:27:05;;;;;;;36.6;15.7;;;;;;;;;;;;;
2019/05/20 12:29:26;;;;;;;32.8;16.2;;;;;;;;;;;;;
2019/05/20 12:31:52;;;;;;;38.4;14.4;;;;;;;;;;;;;
2019/05/20 12:34:23;;;;;;;22.9;12.2;;;;;;;;;;;;;
2019/05/20 12:36:54;;;;;;;14.1;12.2;;;;;;;;;;;;;
2019/05/20 12:39:19;;;;;;;17.3;13.7;;;;;;;;;;;;;
2019/05/20 12:41:44;;;;;;;22.8;18.8;;;;;;;;;;;;;
2019/05/20 12:44:10;;;;;;;33.2;23.5;;;;;;;;;;;;;
2019/05/20 12:46:35;;;;;;;45.7;30.5;;;;;;;;;;;;;
2019/05/20 12:49:01;;;;;;;41.8;32.5;;;;;;;;;;;;;
2019/05/20 12:51:28;;;;;;;45.1;37;;;;;;;;;;;;;
2019/05/20 12:53:53;;;;;;;48.8;37.3;;;;;;;;;;;;;
2019/05/20 12:56:36;;;;;;;41.6;34.3;;;;;;;;;;;;;
2019/05/20 12:58:53;;;;;;;30.8;26.5;;;;;;;;;;;;;
2019/05/20 13:01:12;;;;;;;34.7;26.1;;;;;;;;;;;;;
2019/05/20 13:03:34;;;;;;;21.9;17.6;;;;;;;;;;;;;
2019/05/20 13:06:03;;;;;;;19.8;17.2;;;;;;;;;;;;;
2019/05/20 13:08:25;;;;;;;24.4;21.1;;;;;;;;;;;;;
2019/05/20 13:10:49;;;;;;;22.3;19.9;;;;;;;;;;;;;
2019/05/20 13:13:23;;;;;;;25.7;22.9;;;;;;;;;;;;;
2019/05/20 13:15:45;;;;;;;52.8;28.6;;;;;;;;;;;;;
2019/05/20 13:18:12;;;;;;;32;26.5;;;;;;;;;;;;;
2019/05/20 13:20:51;;;;;;;40.5;33.6;;;;;;;;;;;;;
2019/05/20 13:23:13;;;;;;;35.1;30.8;;;;;;;;;;;;;
2019/05/20 13:25:51;;;;;;;49.7;38.8;;;;;;;;;;;;;
2019/05/20 13:28:16;;;;;;;41.9;34.3;;;;;;;;;;;;;
2019/05/20 13:30:40;;;;;;;39.5;33.4;;;;;;;;;;;;;
2019/05/20 13:33:06;;;;;;;39.8;35.6;;;;;;;;;;;;;
2019/05/20 13:35:31;;;;;;;55;44.4;;;;;;;;;;;;;
2019/05/20 13:37:56;;;;;;;45.5;40.3;;;;;;;;;;;;;
2019/05/20 13:40:22;;;;;;;38.5;34.5;;;;;;;;;;;;;
2019/05/20 13:42:47;;;;;;;48.2;42;;;;;;;;;;;;;
2019/05/20 13:45:11;;;;;;;47;37;;;;;;;;;;;;;
2019/05/20 13:47:36;;;;;;;52.2;41.9;;;;;;;;;;;;;
2019/05/20 13:50:05;;;;;;;40.7;36.5;;;;;;;;;;;;;
2019/05/20 13:52:29;;;;;;;44.6;39.7;;;;;;;;;;;;;
2019/05/20 13:54:54;;;;;;;41.4;37.2;;;;;;;;;;;;;
2019/05/20 13:57:19;;;;;;;42.2;37.8;;;;;;;;;;;;;
2019/05/20 13:59:45;;;;;;;43.9;39.1;;;;;;;;;;;;;
2019/05/20 14:02:10;;;;;;;49;43.7;;;;;;;;;;;;;
2019/05/20 14:04:35;;;;;;;44.2;39.4;;;;;;;;;;;;;
2019/05/20 14:07:01;;;;;;;42.1;37.5;;;;;;;;;;;;;
2019/05/20 14:09:25;;;;;;;40.8;36.4;;;;;;;;;;;;;
2019/05/20 14:11:50;;;;;;;38.4;34.3;;;;;;;;;;;;;
2019/05/20 14:14:15;;;;;;;35.1;31.5;;;;;;;;;;;;;
2019/05/20 14:16:41;;;;;;;35.9;32.3;;;;;;;;;;;;;
2019/05/20 14:19:05;;;;;;;39.7;35.7;;;;;;;;;;;;;
2019/05/20 14:21:31;;;;;;;31.7;28.5;;;;;;;;;;;;;
2019/05/20 14:23:58;;;;;;;31.5;28.4;;;;;;;;;;;;;
2019/05/20 14:26:27;;;;;;;36.9;33;;;;;;;;;;;;;
2019/05/20 14:28:50;;;;;;;29.1;26.2;;;;;;;;;;;;;
2019/05/20 14:31:16;;;;;;;33.2;29.8;;;;;;;;;;;;;
2019/05/20 14:33:43;;;;;;;30.4;27.4;;;;;;;;;;;;;
2019/05/20 14:36:08;;;;;;;36.5;32.3;;;;;;;;;;;;;
2019/05/20 14:38:35;;;;;;;32.3;28.9;;;;;;;;;;;;;
2019/05/20 14:41:00;;;;;;;28.1;25.4;;;;;;;;;;;;;
2019/05/20 14:43:30;;;;;;;30.1;26.8;;;;;;;;;;;;;
2019/05/20 14:45:53;;;;;;;33.4;30;;;;;;;;;;;;;
2019/05/20 14:48:18;;;;;;;33.9;30.4;;;;;;;;;;;;;
2019/05/20 14:50:43;;;;;;;26.3;23.7;;;;;;;;;;;;;
2019/05/20 14:53:08;;;;;;;21.4;19.4;;;;;;;;;;;;;
2019/05/20 14:55:33;;;;;;;25.9;23.4;;;;;;;;;;;;;
2019/05/20 14:57:58;;;;;;;27.2;24.4;;;;;;;;;;;;;
2019/05/20 15:00:25;;;;;;;28.1;25.1;;;;;;;;;;;;;
2019/05/20 15:02:51;;;;;;;25.1;22.6;;;;;;;;;;;;;
2019/05/20 15:05:16;;;;;;;22.9;20.6;;;;;;;;;;;;;
2019/05/20 15:07:41;;;;;;;23.4;21.1;;;;;;;;;;;;;
2019/05/20 15:10:08;;;;;;;23.1;21;;;;;;;;;;;;;
2019/05/20 15:12:34;;;;;;;31.5;28.3;;;;;;;;;;;;;
2019/05/20 15:14:59;;;;;;;26.2;23.7;;;;;;;;;;;;;
2019/05/20 15:17:24;;;;;;;30.4;27.3;;;;;;;;;;;;;
2019/05/20 15:19:49;;;;;;;30;26.9;;;;;;;;;;;;;
2019/05/20 15:22:15;;;;;;;31.7;28.5;;;;;;;;;;;;;
2019/05/20 15:24:40;;;;;;;27.9;25.2;;;;;;;;;;;;;
2019/05/20 15:27:06;;;;;;;31.2;28;;;;;;;;;;;;;
2019/05/20 15:29:31;;;;;;;33.5;29.9;;;;;;;;;;;;;
2019/05/20 15:32:00;;;;;;;29;26.1;;;;;;;;;;;;;
2019/05/20 15:34:24;;;;;;;31.5;28.2;;;;;;;;;;;;;
2019/05/20 15:36:49;;;;;;;31.1;28;;;;;;;;;;;;;
2019/05/20 15:39:15;;;;;;;33.9;30.2;;;;;;;;;;;;;
2019/05/20 15:41:40;;;;;;;34.1;30.4;;;;;;;;;;;;;
2019/05/20 15:44:05;;;;;;;31.3;28;;;;;;;;;;;;;
2019/05/20 15:46:35;;;;;;;30;27;;;;;;;;;;;;;
2019/05/20 15:49:02;;;;;;;32.5;29.2;;;;;;;;;;;;;
2019/05/20 15:51:28;;;;;;;33.5;30;;;;;;;;;;;;;
2019/05/20 15:53:55;;;;;;;32.1;28.7;;;;;;;;;;;;;
2019/05/20 15:56:20;;;;;;;42.1;37.2;;;;;;;;;;;;;
2019/05/20 15:58:47;;;;;;;32.7;29.3;;;;;;;;;;;;;
2019/05/20 16:01:12;;;;;;;35.8;32;;;;;;;;;;;;;
2019/05/20 16:03:41;;;;;;;44;37;;;;;;;;;;;;;
2019/05/20 16:06:06;;;;;;;44.7;37.5;;;;;;;;;;;;;
2019/05/20 16:08:31;;;;;;;38.7;34.5;;;;;;;;;;;;;
2019/05/20 16:10:57;;;;;;;38.4;33;;;;;;;;;;;;;
2019/05/20 16:13:23;;;;;;;41.1;35.2;;;;;;;;;;;;;
2019/05/20 16:15:48;;;;;;;43.1;37.3;;;;;;;;;;;;;
2019/05/20 16:18:14;;;;;;;48.5;39.5;;;;;;;;;;;;;
2019/05/20 16:20:39;;;;;;;48.7;39.5;;;;;;;;;;;;;
2019/05/20 16:23:05;;;;;;;46.7;39.1;;;;;;;;;;;;;
2019/05/20 16:25:30;;;;;;;54;43.3;;;;;;;;;;;;;
2019/05/20 16:27:55;;;;;;;64.6;46.6;;;;;;;;;;;;;
2019/05/20 16:30:20;;;;;;;44.2;36.9;;;;;;;;;;;;;
2019/05/20 16:32:45;;;;;;;48.5;39.5;;;;;;;;;;;;;
2019/05/20 16:35:10;;;;;;;44.8;37.7;;;;;;;;;;;;;
2019/05/20 16:37:36;;;;;;;58.3;45.7;;;;;;;;;;;;;
2019/05/20 16:40:01;;;;;;;54.8;43.7;;;;;;;;;;;;;
2019/05/20 16:42:27;;;;;;;53.4;42.2;;;;;;;;;;;;;
2019/05/20 16:44:53;;;;;;;60.5;45.5;;;;;;;;;;;;;
2019/05/20 16:47:17;;;;;;;56.3;44.6;;;;;;;;;;;;;
2019/05/20 16:49:42;;;;;;;60.8;47.6;;;;;;;;;;;;;
2019/05/20 16:52:11;;;;;;;67.2;50.7;;;;;;;;;;;;;
2019/05/20 16:54:41;;;;;;;71.6;53;;;;;;;;;;;;;
2019/05/20 16:57:08;;;;;;;87.6;60.4;;;;;;;;;;;;;
2019/05/20 16:59:32;;;;;;;86.8;60;;;;;;;;;;;;;
2019/05/20 17:02:00;;;;;;;86;59.3;;;;;;;;;;;;;
2019/05/20 17:04:25;;;;;;;88.4;59.1;;;;;;;;;;;;;
2019/05/20 17:06:52;;;;;;;74.4;52.3;;;;;;;;;;;;;
2019/05/20 17:09:17;;;;;;;85.1;58.4;;;;;;;;;;;;;
2019/05/20 17:11:42;;;;;;;85.3;60.1;;;;;;;;;;;;;
2019/05/20 17:14:07;;;;;;;79.2;55.9;;;;;;;;;;;;;
2019/05/20 17:16:33;;;;;;;75;55.1;;;;;;;;;;;;;
2019/05/20 17:19:11;;;;;;;69.4;51.6;;;;;;;;;;;;;
2019/05/20 17:21:36;;;;;;;68.3;51.6;;;;;;;;;;;;;
2019/05/20 17:24:01;;;;;;;69.1;52.1;;;;;;;;;;;;;
2019/05/20 17:26:26;;;;;;;65.8;51;;;;;;;;;;;;;